createdAt,value
2022-12-25T00:01:23.233Z,77.68
2022-12-25T00:03:50.616Z,77.66
2022-12-25T00:06:18.186Z,77.36
2022-12-25T00:08:45.083Z,78.52
2022-12-25T00:11:14.638Z,78.91
2022-12-25T00:13:41.816Z,78.61
2022-12-25T00:16:17.390Z,78.09
2022-12-25T00:18:44.333Z,78.40
2022-12-25T00:21:11.406Z,78.05
2022-12-25T00:23:38.795Z,78.09
2022-12-25T00:26:15.027Z,78.03
2022-12-25T00:28:41.862Z,78.29
2022-12-25T00:31:11.309Z,78.17
2022-12-25T00:33:39.948Z,78.13
2022-12-25T00:36:08.051Z,78.02
2022-12-25T00:38:36.050Z,77.82
2022-12-25T00:41:11.618Z,78.78
2022-12-25T00:43:41.996Z,78.44
2022-12-25T00:46:11.624Z,79.02
2022-12-25T00:48:38.538Z,79.17
2022-12-25T00:51:07.835Z,78.73
2022-12-25T00:53:34.502Z,79.33
2022-12-25T00:56:04.859Z,78.66
2022-12-25T00:58:33.845Z,79.18
2022-12-25T01:01:02.724Z,78.85
2022-12-25T01:03:29.845Z,78.40
2022-12-25T01:06:03.066Z,78.85
2022-12-25T01:08:33.576Z,78.93
2022-12-25T01:11:08.707Z,79.13
2022-12-25T01:13:37.176Z,79.18
2022-12-25T01:16:10.642Z,78.44
2022-12-25T01:18:38.508Z,78.76
2022-12-25T01:21:13.120Z,79.09
2022-12-25T01:23:39.672Z,79.91
2022-12-25T01:26:07.448Z,79.64
2022-12-25T01:28:34.246Z,79.61
2022-12-25T01:31:01.036Z,79.41
2022-12-25T01:33:27.637Z,79.92
2022-12-25T01:35:54.341Z,79.56
2022-12-25T01:38:21.645Z,80.03
2022-12-25T01:40:48.244Z,80.01
2022-12-25T01:43:20.886Z,80.52
2022-12-25T01:45:49.339Z,80.04
2022-12-25T01:48:19.905Z,80.27
2022-12-25T01:50:53.083Z,80.26
2022-12-25T01:53:20.251Z,80.38
2022-12-25T01:55:51.001Z,80.33
2022-12-25T01:58:18.345Z,80.50
2022-12-25T02:00:45.471Z,80.33
2022-12-25T02:03:12.112Z,80.12
2022-12-25T02:05:38.770Z,80.33
2022-12-25T02:08:11.091Z,79.93
2022-12-25T02:10:39.283Z,80.30
2022-12-25T02:13:07.665Z,79.81
2022-12-25T02:15:52.822Z,80.49
2022-12-25T02:18:29.621Z,80.26
2022-12-25T02:21:22.602Z,80.06
2022-12-25T02:24:31.976Z,80.57
2022-12-25T02:27:04.386Z,80.08
2022-12-25T02:29:36.804Z,80.17
2022-12-25T02:32:28.149Z,81.08
2022-12-25T02:35:12.804Z,80.71
2022-12-25T02:37:45.717Z,80.49
2022-12-25T02:40:36.203Z,80.74
2022-12-25T02:43:25.510Z,80.37
2022-12-25T02:46:16.538Z,80.40
2022-12-25T02:49:10.898Z,80.24
2022-12-25T02:52:02.714Z,79.90
2022-12-25T02:54:53.301Z,80.05
2022-12-25T02:57:43.875Z,80.97
2022-12-25T03:00:30.582Z,81.84
2022-12-25T03:03:18.031Z,81.98
2022-12-25T03:06:04.336Z,81.70
2022-12-25T03:08:40.148Z,81.70
2022-12-25T03:11:29.823Z,81.31
2022-12-25T03:14:20.499Z,81.71
2022-12-25T03:16:53.709Z,81.25
2022-12-25T03:19:44.613Z,81.66
2022-12-25T03:22:34.113Z,81.96
2022-12-25T03:25:19.773Z,81.83
2022-12-25T03:27:49.186Z,82.04
2022-12-25T03:30:34.527Z,81.91
2022-12-25T03:33:36.738Z,82.11
2022-12-25T03:36:40.953Z,82.27
2022-12-25T03:39:38.932Z,82.55
2022-12-25T03:42:25.724Z,82.24
2022-12-25T03:45:21.437Z,82.41
2022-12-25T03:48:10.306Z,82.29
2022-12-25T03:51:04.378Z,81.91
2022-12-25T03:53:58.982Z,82.88
2022-12-25T03:56:45.154Z,82.19
2022-12-25T03:59:30.682Z,82.40
2022-12-25T04:02:16.131Z,82.33
2022-12-25T04:05:01.388Z,82.57
2022-12-25T04:07:47.210Z,82.41
2022-12-25T04:10:32.653Z,82.06
2022-12-25T04:13:17.619Z,81.95
2022-12-25T04:16:02.952Z,82.01
2022-12-25T04:18:48.155Z,82.03
2022-12-25T04:21:33.533Z,82.01
2022-12-25T04:24:18.403Z,82.19
2022-12-25T04:27:03.446Z,81.82
2022-12-25T04:29:48.511Z,82.03
2022-12-25T04:32:33.600Z,82.40
2022-12-25T04:35:18.726Z,81.81
2022-12-25T04:37:45.554Z,82.43
2022-12-25T04:40:12.252Z,82.31
2022-12-25T04:42:38.900Z,82.61
2022-12-25T04:45:06.387Z,82.14
2022-12-25T04:47:33.317Z,82.35
2022-12-25T04:49:59.916Z,83.07
2022-12-25T04:52:26.670Z,82.67
2022-12-25T04:54:53.305Z,82.45
2022-12-25T04:57:19.815Z,82.72
2022-12-25T04:59:46.351Z,82.38
2022-12-25T05:02:13.131Z,82.49
2022-12-25T05:04:39.800Z,82.63
2022-12-25T05:07:06.371Z,82.78
2022-12-25T05:09:32.903Z,82.81
2022-12-25T05:11:59.526Z,82.84
2022-12-25T05:14:26.139Z,82.78
2022-12-25T05:16:53.049Z,82.67
2022-12-25T05:19:19.687Z,82.42
2022-12-25T05:21:46.264Z,82.23
2022-12-25T05:24:12.876Z,82.31
2022-12-25T05:26:39.572Z,82.42
2022-12-25T05:29:06.205Z,81.87
2022-12-25T05:31:35.716Z,82.24
2022-12-25T05:34:02.323Z,82.41
2022-12-25T05:36:29.068Z,82.21
2022-12-25T05:38:55.613Z,82.34
2022-12-25T05:41:22.319Z,82.25
2022-12-25T05:43:48.878Z,82.14
2022-12-25T05:46:15.954Z,82.07
2022-12-25T05:48:42.559Z,81.83
2022-12-25T05:51:14.046Z,81.85
2022-12-25T05:53:42.364Z,82.17
2022-12-25T05:56:09.549Z,81.99
2022-12-25T05:58:38.669Z,81.90
2022-12-25T06:01:12.111Z,81.93
2022-12-25T06:03:39.016Z,81.39
2022-12-25T06:06:07.170Z,81.86
2022-12-25T06:08:34.419Z,81.76
2022-12-25T06:11:06.264Z,81.74
2022-12-25T06:13:33.895Z,81.80
2022-12-25T06:16:04.507Z,81.57
2022-12-25T06:18:31.138Z,81.81
2022-12-25T06:20:57.695Z,82.07
2022-12-25T06:23:24.440Z,81.80
2022-12-25T06:25:51.055Z,81.42
2022-12-25T06:28:17.690Z,81.62
2022-12-25T06:30:44.248Z,81.99
2022-12-25T06:33:11.898Z,81.84
2022-12-25T06:35:40.193Z,81.66
2022-12-25T06:38:06.765Z,81.66
2022-12-25T06:40:34.793Z,81.51
2022-12-25T06:43:01.346Z,81.40
2022-12-25T06:45:27.945Z,81.37
2022-12-25T06:47:54.527Z,81.24
2022-12-25T06:50:21.125Z,81.35
2022-12-25T06:52:47.699Z,80.96
2022-12-25T06:55:14.308Z,80.74
2022-12-25T06:57:40.877Z,80.89
2022-12-25T07:00:08.170Z,81.01
2022-12-25T07:02:35.295Z,81.45
2022-12-25T07:05:03.992Z,81.17
2022-12-25T07:07:30.600Z,81.06
2022-12-25T07:09:57.186Z,80.95
2022-12-25T07:12:24.252Z,80.56
2022-12-25T07:14:54.634Z,81.07
2022-12-25T07:17:22.236Z,80.95
2022-12-25T07:19:49.295Z,80.79
2022-12-25T07:22:16.724Z,81.56
2022-12-25T07:24:43.317Z,81.07
2022-12-25T07:27:10.258Z,80.81
2022-12-25T07:29:36.826Z,81.18
2022-12-25T07:32:03.703Z,80.98
2022-12-25T07:34:30.358Z,81.12
2022-12-25T07:36:57.007Z,81.27
2022-12-25T07:39:23.710Z,81.31
2022-12-25T07:41:51.239Z,81.50
2022-12-25T07:44:18.167Z,81.36
2022-12-25T07:46:45.022Z,81.62
2022-12-25T07:49:12.232Z,81.41
2022-12-25T07:51:38.867Z,81.24
2022-12-25T07:54:05.503Z,81.60
2022-12-25T07:56:32.991Z,81.74
2022-12-25T07:58:59.624Z,81.21
2022-12-25T08:01:27.739Z,81.42
2022-12-25T08:03:57.085Z,81.40
2022-12-25T08:06:29.494Z,81.44
2022-12-25T08:08:56.594Z,81.32
2022-12-25T08:11:23.541Z,80.72
2022-12-25T08:13:50.135Z,80.86
2022-12-25T08:16:16.787Z,80.31
2022-12-25T08:18:43.669Z,80.77
2022-12-25T08:21:13.285Z,80.61
2022-12-25T08:23:42.364Z,80.60
2022-12-25T08:26:13.182Z,80.37
2022-12-25T08:28:40.026Z,80.16
2022-12-25T08:31:14.845Z,80.11
2022-12-25T08:33:42.118Z,80.30
2022-12-25T08:36:10.345Z,79.91
2022-12-25T08:38:37.295Z,80.34
2022-12-25T08:41:04.133Z,79.91
2022-12-25T08:43:30.921Z,80.16
2022-12-25T08:45:57.578Z,80.06
2022-12-25T08:48:24.183Z,80.39
2022-12-25T08:50:52.375Z,79.97
2022-12-25T08:53:19.749Z,79.81
2022-12-25T08:55:46.512Z,80.28
2022-12-25T08:58:14.556Z,79.58
2022-12-25T09:00:41.187Z,79.92
2022-12-25T09:03:07.856Z,79.31
2022-12-25T09:05:35.790Z,79.69
2022-12-25T09:08:02.514Z,79.35
2022-12-25T09:10:29.228Z,79.79
2022-12-25T09:12:55.941Z,79.49
2022-12-25T09:15:22.709Z,79.76
2022-12-25T09:17:49.295Z,79.44
2022-12-25T09:20:15.859Z,79.56
2022-12-25T09:22:42.534Z,79.37
2022-12-25T09:25:09.838Z,79.50
2022-12-25T09:27:36.460Z,78.67
2022-12-25T09:30:04.085Z,79.22
2022-12-25T09:32:30.725Z,78.81
2022-12-25T09:34:57.386Z,78.56
2022-12-25T09:37:24.268Z,78.68
2022-12-25T09:39:50.973Z,77.63
2022-12-25T09:42:22.489Z,77.58
2022-12-25T09:44:54.888Z,77.87
2022-12-25T09:47:31.213Z,77.47
2022-12-25T09:50:11.331Z,77.97
2022-12-25T09:52:46.579Z,78.14
2022-12-25T09:55:20.996Z,77.58
2022-12-25T09:58:00.480Z,77.14
2022-12-25T10:00:42.661Z,76.50
2022-12-25T10:03:51.679Z,76.97
2022-12-25T10:07:01.681Z,76.65
2022-12-25T10:09:51.672Z,76.96
2022-12-25T10:12:49.228Z,76.75
2022-12-25T10:15:25.713Z,76.63
2022-12-25T10:18:10.528Z,76.96
2022-12-25T10:20:50.410Z,76.43
2022-12-25T10:23:29.046Z,75.71
2022-12-25T10:25:55.894Z,76.68
2022-12-25T10:28:36.029Z,75.50
2022-12-25T10:31:17.443Z,75.52
2022-12-25T10:33:44.158Z,75.39
2022-12-25T10:36:10.754Z,75.37
2022-12-25T10:38:37.308Z,75.23
2022-12-25T10:41:12.996Z,75.02
2022-12-25T10:43:48.936Z,74.39
2022-12-25T10:46:16.890Z,74.48
2022-12-25T10:49:05.408Z,74.56
2022-12-25T10:51:36.721Z,74.64
2022-12-25T10:54:04.797Z,73.64
2022-12-25T10:56:31.395Z,73.82
2022-12-25T10:59:10.566Z,73.12
2022-12-25T11:01:37.451Z,72.60
2022-12-25T11:04:04.336Z,72.53
2022-12-25T11:06:32.599Z,71.64
2022-12-25T11:09:02.558Z,71.26
2022-12-25T11:11:30.355Z,70.39
2022-12-25T11:14:02.689Z,72.04
2022-12-25T11:16:30.898Z,70.06
2022-12-25T11:18:59.018Z,69.52
2022-12-25T11:21:29.565Z,70.96
2022-12-25T11:24:02.013Z,69.04
2022-12-25T11:26:31.248Z,68.42
2022-12-25T11:28:58.471Z,67.92
2022-12-25T11:31:40.577Z,67.80
2022-12-25T11:34:27.071Z,67.85
2022-12-25T11:36:54.008Z,67.12
2022-12-25T11:39:36.200Z,66.55
2022-12-25T11:42:14.474Z,67.05
2022-12-25T11:44:49.483Z,65.61
2022-12-25T11:47:37.624Z,65.98
2022-12-25T11:50:07.535Z,67.61
2022-12-25T11:52:38.733Z,67.99
2022-12-25T11:55:21.712Z,67.33
2022-12-25T11:57:54.510Z,66.52
2022-12-25T12:00:21.490Z,67.33
2022-12-25T12:02:58.804Z,65.92
2022-12-25T12:05:47.985Z,65.59
2022-12-25T12:08:15.509Z,66.63
2022-12-25T12:11:32.596Z,65.81
2022-12-25T12:14:20.252Z,67.03
2022-12-25T12:16:47.125Z,67.21
2022-12-25T12:19:26.106Z,67.08
2022-12-25T12:21:56.258Z,67.91
2022-12-25T12:24:24.949Z,68.46
2022-12-25T12:27:05.106Z,67.90
2022-12-25T12:29:41.023Z,68.18
2022-12-25T12:32:20.402Z,67.85
2022-12-25T12:34:50.511Z,67.81
2022-12-25T12:37:35.288Z,67.69
2022-12-25T12:40:03.323Z,68.00
2022-12-25T12:42:32.937Z,67.68
2022-12-25T12:45:18.011Z,68.14
2022-12-25T12:47:50.316Z,67.90
2022-12-25T12:50:40.946Z,68.43
2022-12-25T12:53:21.635Z,68.68
2022-12-25T12:55:48.324Z,68.91
2022-12-25T12:58:35.466Z,67.92
2022-12-25T13:01:26.563Z,67.53
2022-12-25T13:04:28.667Z,66.56
2022-12-25T13:07:13.747Z,66.79
2022-12-25T13:09:51.274Z,67.30
2022-12-25T13:12:19.302Z,65.71
2022-12-25T13:14:47.989Z,67.61
2022-12-25T13:17:22.061Z,66.37
2022-12-25T13:20:02.412Z,65.52
2022-12-25T13:22:34.762Z,66.62
2022-12-25T13:25:05.067Z,67.13
2022-12-25T13:27:33.401Z,67.71
2022-12-25T13:30:00.260Z,66.86
2022-12-25T13:32:30.678Z,68.01
2022-12-25T13:34:58.988Z,66.64
2022-12-25T13:37:31.076Z,67.31
2022-12-25T13:40:00.331Z,66.91
2022-12-25T13:42:30.051Z,67.70
2022-12-25T13:45:06.029Z,67.22
2022-12-25T13:47:38.299Z,66.83
2022-12-25T13:50:13.898Z,67.25
2022-12-25T13:52:40.485Z,66.68
2022-12-25T13:55:13.057Z,66.56
2022-12-25T13:57:47.591Z,66.75
2022-12-25T14:00:23.721Z,66.93
2022-12-25T14:02:51.443Z,67.62
2022-12-25T14:05:24.292Z,66.97
2022-12-25T14:07:53.116Z,67.37
2022-12-25T14:10:22.043Z,68.03
2022-12-25T14:12:55.080Z,67.37
2022-12-25T14:15:23.561Z,67.12
2022-12-25T14:17:52.024Z,67.80
2022-12-25T14:20:27.535Z,67.29
2022-12-25T14:22:56.854Z,68.27
2022-12-25T14:25:32.160Z,68.49
2022-12-25T14:28:09.415Z,68.53
2022-12-25T14:30:36.698Z,68.58
2022-12-25T14:33:03.424Z,68.17
2022-12-25T14:35:30.396Z,68.98
2022-12-25T14:38:00.331Z,68.30
2022-12-25T14:40:32.057Z,68.82
2022-12-25T14:42:59.857Z,69.00
2022-12-25T14:45:34.249Z,69.28
2022-12-25T14:48:19.774Z,69.72
2022-12-25T14:51:08.928Z,69.47
2022-12-25T14:53:50.999Z,69.91
2022-12-25T14:56:20.311Z,69.93
2022-12-25T14:58:52.603Z,70.53
2022-12-25T15:01:26.592Z,70.78
2022-12-25T15:04:04.868Z,71.79
2022-12-25T15:06:33.062Z,71.56
2022-12-25T15:09:02.855Z,71.46
2022-12-25T15:11:29.937Z,71.42
2022-12-25T15:13:56.497Z,71.37
2022-12-25T15:16:30.919Z,72.14
2022-12-25T15:19:00.363Z,72.66
2022-12-25T15:21:33.954Z,72.84
2022-12-25T15:24:00.846Z,72.84
2022-12-25T15:26:29.770Z,72.95
2022-12-25T15:29:59.705Z,73.35
2022-12-25T15:32:17.564Z,72.80
2022-12-25T15:34:46.194Z,73.28
2022-12-25T15:37:14.117Z,73.00
2022-12-25T15:39:40.758Z,73.56
2022-12-25T15:42:16.841Z,73.71
2022-12-25T15:44:44.605Z,73.26
2022-12-25T15:47:12.410Z,74.42
2022-12-25T15:49:39.370Z,73.82
2022-12-25T15:52:10.045Z,73.93
2022-12-25T15:54:39.689Z,73.71
2022-12-25T15:57:13.738Z,73.73
2022-12-25T15:59:40.313Z,74.25
2022-12-25T16:02:16.771Z,75.15
2022-12-25T16:04:43.860Z,74.80
2022-12-25T16:07:20.425Z,74.27
2022-12-25T16:09:47.089Z,74.43
2022-12-25T16:12:13.709Z,74.80
2022-12-25T16:14:40.721Z,75.01
2022-12-25T16:17:07.668Z,74.99
2022-12-25T16:19:34.229Z,74.67
2022-12-25T16:22:04.320Z,75.44
2022-12-25T16:24:30.967Z,74.93
2022-12-25T16:26:57.680Z,75.33
2022-12-25T16:29:24.337Z,76.28
2022-12-25T16:31:50.908Z,75.64
2022-12-25T16:34:17.598Z,75.26
2022-12-25T16:36:44.277Z,75.14
2022-12-25T16:39:10.861Z,75.26
2022-12-25T16:41:37.537Z,75.96
2022-12-25T16:44:09.614Z,75.42
2022-12-25T16:46:37.280Z,75.75
2022-12-25T16:49:04.044Z,75.84
2022-12-25T16:51:46.507Z,76.24
2022-12-25T16:54:16.094Z,75.77
2022-12-25T16:56:42.744Z,75.68
2022-12-25T16:59:09.356Z,75.28
2022-12-25T17:01:36.099Z,75.38
2022-12-25T17:04:03.345Z,75.61
2022-12-25T17:06:30.105Z,75.98
2022-12-25T17:08:59.035Z,75.65
2022-12-25T17:11:29.683Z,76.14
2022-12-25T17:13:58.611Z,76.03
2022-12-25T17:16:27.800Z,76.17
2022-12-25T17:19:01.257Z,76.25
2022-12-25T17:21:28.760Z,76.14
2022-12-25T17:24:01.685Z,76.86
2022-12-25T17:26:30.472Z,77.13
2022-12-25T17:28:57.252Z,77.53
2022-12-25T17:31:24.707Z,77.91
2022-12-25T17:33:51.531Z,77.53
2022-12-25T17:36:22.622Z,78.09
2022-12-25T17:38:49.896Z,78.73
2022-12-25T17:41:18.478Z,77.82
2022-12-25T17:43:46.391Z,77.78
2022-12-25T17:46:24.986Z,77.38
2022-12-25T17:48:52.587Z,77.23
2022-12-25T17:51:22.362Z,77.42
2022-12-25T17:53:51.618Z,77.53
2022-12-25T17:56:19.747Z,77.13
2022-12-25T17:58:54.854Z,77.04
2022-12-25T18:01:23.458Z,77.10
2022-12-25T18:03:51.311Z,77.19
2022-12-25T18:06:22.113Z,77.50
2022-12-25T18:08:52.887Z,76.59
2022-12-25T18:11:23.236Z,77.01
2022-12-25T18:13:52.172Z,77.15
2022-12-25T18:16:22.010Z,76.85
2022-12-25T18:18:52.154Z,76.96
2022-12-25T18:21:20.222Z,77.64
2022-12-25T18:23:46.882Z,77.79
2022-12-25T18:26:13.872Z,77.81
2022-12-25T18:28:42.713Z,77.24
2022-12-25T18:31:22.446Z,77.32
2022-12-25T18:33:50.383Z,77.36
2022-12-25T18:36:22.781Z,77.49
2022-12-25T18:38:51.070Z,77.26
2022-12-25T18:41:18.945Z,77.70
2022-12-25T18:43:53.619Z,77.29
2022-12-25T18:46:26.475Z,77.00
2022-12-25T18:48:56.634Z,77.31
2022-12-25T18:51:23.459Z,77.40
2022-12-25T18:53:51.005Z,77.52
2022-12-25T18:56:19.770Z,77.43
2022-12-25T18:58:47.169Z,76.91
2022-12-25T19:01:20.687Z,76.87
2022-12-25T19:03:48.994Z,76.45
2022-12-25T19:06:27.193Z,76.03
2022-12-25T19:08:55.773Z,75.98
2022-12-25T19:11:22.844Z,75.95
2022-12-25T19:13:49.573Z,75.97
2022-12-25T19:16:16.853Z,76.36
2022-12-25T19:18:45.130Z,75.72
2022-12-25T19:21:11.739Z,76.05
2022-12-25T19:23:38.993Z,75.91
2022-12-25T19:26:07.032Z,75.51
2022-12-25T19:28:34.449Z,76.00
2022-12-25T19:31:02.884Z,75.49
2022-12-25T19:33:31.679Z,75.48
2022-12-25T19:36:07.200Z,75.42
2022-12-25T19:38:34.227Z,75.74
2022-12-25T19:41:09.365Z,75.74
2022-12-25T19:43:38.633Z,75.51
2022-12-25T19:46:06.641Z,75.63
2022-12-25T19:48:33.979Z,75.95
2022-12-25T19:51:00.999Z,75.40
2022-12-25T19:53:31.469Z,75.41
2022-12-25T19:56:02.081Z,75.35
2022-12-25T19:58:29.707Z,75.94
2022-12-25T20:01:00.608Z,75.48
2022-12-25T20:03:27.691Z,75.86
2022-12-25T20:05:54.579Z,75.60
2022-12-25T20:08:21.395Z,75.99
2022-12-25T20:10:49.168Z,75.68
2022-12-25T20:13:16.504Z,75.98
2022-12-25T20:15:43.192Z,75.63
2022-12-25T20:18:09.778Z,75.57
2022-12-25T20:20:36.399Z,75.43
2022-12-25T20:23:03.714Z,75.96
2022-12-25T20:25:30.396Z,75.53
2022-12-25T20:27:56.984Z,76.28
2022-12-25T20:30:23.705Z,76.03
2022-12-25T20:32:50.875Z,75.63
2022-12-25T20:35:17.694Z,75.92
2022-12-25T20:37:44.695Z,75.78
2022-12-25T20:40:12.432Z,75.82
2022-12-25T20:42:39.138Z,76.35
2022-12-25T20:45:07.453Z,75.98
2022-12-25T20:47:34.918Z,75.95
2022-12-25T20:50:01.608Z,76.08
2022-12-25T20:52:28.374Z,75.98
2022-12-25T20:54:54.981Z,76.60
2022-12-25T20:57:21.534Z,76.52
2022-12-25T20:59:48.131Z,76.54
2022-12-25T21:02:34.280Z,77.21
2022-12-25T21:05:01.291Z,76.96
2022-12-25T21:07:27.853Z,77.10
2022-12-25T21:09:54.445Z,77.18
2022-12-25T21:12:20.995Z,77.66
2022-12-25T21:14:47.578Z,77.41
2022-12-25T21:17:14.132Z,77.71
2022-12-25T21:19:40.802Z,77.65
2022-12-25T21:22:07.402Z,77.75
2022-12-25T21:24:33.977Z,77.72
2022-12-25T21:27:00.569Z,77.42
2022-12-25T21:29:27.180Z,77.25
2022-12-25T21:32:12.972Z,77.33
2022-12-25T21:34:39.945Z,77.17
2022-12-25T21:37:06.496Z,77.12
2022-12-25T21:39:33.158Z,77.28
2022-12-25T21:41:59.731Z,77.26
2022-12-25T21:44:26.387Z,77.26
2022-12-25T21:46:53.230Z,77.35
2022-12-25T21:49:44.126Z,77.42
2022-12-25T21:52:10.908Z,77.66
2022-12-25T21:54:37.763Z,77.74
2022-12-25T21:57:05.022Z,77.89
2022-12-25T21:59:31.692Z,78.01
2022-12-25T22:01:59.482Z,78.11
2022-12-25T22:04:26.755Z,78.00
2022-12-25T22:07:12.124Z,78.13
2022-12-25T22:09:38.819Z,78.02
2022-12-25T22:12:27.382Z,78.24
2022-12-25T22:15:02.706Z,77.75
2022-12-25T22:17:50.126Z,78.19
2022-12-25T22:20:23.867Z,78.52
2022-12-25T22:22:51.117Z,78.19
2022-12-25T22:25:18.376Z,78.52
2022-12-25T22:27:46.726Z,78.66
2022-12-25T22:30:18.999Z,78.90
2022-12-25T22:32:46.333Z,78.72
2022-12-25T22:35:14.160Z,78.95
2022-12-25T22:37:42.228Z,78.63
2022-12-25T22:40:10.808Z,79.49
2022-12-25T22:42:37.469Z,79.31
2022-12-25T22:45:04.893Z,79.66
2022-12-25T22:47:31.575Z,79.27
2022-12-25T22:49:58.185Z,79.35
2022-12-25T22:52:24.841Z,79.49
2022-12-25T22:54:51.505Z,79.00
2022-12-25T22:57:18.159Z,78.80
2022-12-25T22:59:45.878Z,78.85
2022-12-25T23:02:12.607Z,78.96
2022-12-25T23:04:39.245Z,79.38
2022-12-25T23:07:05.862Z,79.36
2022-12-25T23:09:32.391Z,79.29
2022-12-25T23:11:59.458Z,79.38
2022-12-25T23:14:39.195Z,79.65
2022-12-25T23:17:29.261Z,79.89
2022-12-25T23:20:16.497Z,79.70
2022-12-25T23:23:01.917Z,79.37
2022-12-25T23:25:47.682Z,79.69
2022-12-25T23:28:14.436Z,79.26
2022-12-25T23:30:41.001Z,79.23
2022-12-25T23:33:07.609Z,79.86
2022-12-25T23:35:34.177Z,79.95
2022-12-25T23:38:00.999Z,79.47
2022-12-25T23:40:27.648Z,79.80
2022-12-25T23:42:54.264Z,79.66
2022-12-25T23:45:20.992Z,79.24
2022-12-25T23:47:47.553Z,79.49
2022-12-25T23:50:15.161Z,80.27
2022-12-25T23:52:42.038Z,80.25
2022-12-25T23:55:08.862Z,80.51
2022-12-25T23:57:35.390Z,80.34
